createdAt,value
2023-03-13T00:01:49.318Z,3.11
2023-03-13T00:04:21.302Z,3.29
2023-03-13T00:06:53.079Z,3.41
2023-03-13T00:09:24.777Z,3.20
2023-03-13T00:11:56.912Z,3.12
2023-03-13T00:14:28.524Z,3.21
2023-03-13T00:17:00.229Z,3.29
2023-03-13T00:19:31.921Z,3.18
2023-03-13T00:22:03.562Z,3.18
2023-03-13T00:24:35.142Z,3.09
2023-03-13T00:27:06.774Z,3.03
2023-03-13T00:29:38.631Z,3.10
2023-03-13T00:32:10.353Z,3.23
2023-03-13T00:34:42.097Z,3.27
2023-03-13T00:37:13.762Z,3.08
2023-03-13T00:39:45.331Z,2.83
2023-03-13T00:42:16.931Z,2.79
2023-03-13T00:44:48.524Z,2.88
2023-03-13T00:47:20.081Z,2.60
2023-03-13T00:49:51.689Z,2.62
2023-03-13T00:52:27.882Z,2.46
2023-03-13T00:54:59.517Z,2.45
2023-03-13T00:57:31.121Z,2.34
2023-03-13T01:00:04.473Z,2.44
2023-03-13T01:02:41.845Z,2.56
2023-03-13T01:05:14.598Z,2.26
2023-03-13T01:07:46.261Z,2.34
2023-03-13T01:10:17.971Z,2.36
2023-03-13T01:12:49.580Z,2.54
2023-03-13T01:15:21.246Z,2.47
2023-03-13T01:17:53.198Z,2.75
2023-03-13T01:20:24.899Z,2.94
2023-03-13T01:22:56.721Z,2.79
2023-03-13T01:25:28.373Z,2.77
2023-03-13T01:28:00.010Z,2.81
2023-03-13T01:30:32.985Z,2.80
2023-03-13T01:33:04.674Z,3.10
2023-03-13T01:35:36.376Z,2.98
2023-03-13T01:38:08.574Z,3.12
2023-03-13T01:40:46.572Z,2.79
2023-03-13T01:43:27.509Z,2.77
2023-03-13T01:46:22.769Z,2.78
2023-03-13T01:49:16.597Z,2.78
2023-03-13T01:52:07.809Z,2.55
2023-03-13T01:55:12.744Z,2.69
2023-03-13T01:57:52.646Z,2.76
2023-03-13T02:00:36.660Z,2.96
2023-03-13T02:03:14.354Z,3.03
2023-03-13T02:05:50.836Z,2.89
2023-03-13T02:08:35.701Z,2.81
2023-03-13T02:11:39.796Z,2.94
2023-03-13T02:14:13.087Z,2.92
2023-03-13T02:16:46.094Z,3.13
2023-03-13T02:19:27.721Z,2.77
2023-03-13T02:22:11.662Z,2.83
2023-03-13T02:25:11.351Z,2.88
2023-03-13T02:27:45.818Z,2.63
2023-03-13T02:30:18.254Z,2.96
2023-03-13T02:32:51.272Z,2.79
2023-03-13T02:35:24.507Z,2.88
2023-03-13T02:38:05.909Z,2.75
2023-03-13T02:40:42.374Z,2.88
2023-03-13T02:43:35.929Z,2.72
2023-03-13T02:46:13.305Z,2.98
2023-03-13T02:48:52.239Z,3.10
2023-03-13T02:51:41.831Z,2.57
2023-03-13T02:54:24.224Z,2.65
2023-03-13T02:57:00.597Z,2.64
2023-03-13T02:59:34.598Z,2.75
2023-03-13T03:02:06.367Z,2.49
2023-03-13T03:04:38.177Z,2.41
2023-03-13T03:07:09.975Z,2.52
2023-03-13T03:09:41.931Z,2.45
2023-03-13T03:12:18.578Z,2.46
2023-03-13T03:14:53.170Z,2.74
2023-03-13T03:17:25.594Z,2.30
2023-03-13T03:19:58.448Z,2.65
2023-03-13T03:22:30.087Z,2.40
2023-03-13T03:25:01.709Z,2.37
2023-03-13T03:27:36.235Z,2.44
2023-03-13T03:30:11.522Z,2.34
2023-03-13T03:32:44.323Z,2.27
2023-03-13T03:35:16.020Z,2.24
2023-03-13T03:37:47.657Z,2.53
2023-03-13T03:40:19.793Z,2.36
2023-03-13T03:42:51.447Z,2.60
2023-03-13T03:45:23.084Z,2.44
2023-03-13T03:47:56.889Z,2.34
2023-03-13T03:50:28.783Z,2.32
2023-03-13T03:53:05.348Z,2.14
2023-03-13T03:55:37.220Z,2.09
2023-03-13T03:58:09.066Z,2.03
2023-03-13T04:01:04.124Z,1.95
2023-03-13T04:03:36.321Z,2.15
2023-03-13T04:06:08.268Z,2.14
2023-03-13T04:08:39.949Z,2.17
2023-03-13T04:11:12.605Z,2.13
2023-03-13T04:13:48.029Z,1.88
2023-03-13T04:16:19.940Z,2.26
2023-03-13T04:18:52.774Z,1.96
2023-03-13T04:21:25.199Z,2.21
2023-03-13T04:24:05.661Z,2.14
2023-03-13T04:26:39.109Z,2.16
2023-03-13T04:29:11.138Z,2.14
2023-03-13T04:32:05.928Z,1.98
2023-03-13T04:34:37.510Z,2.31
2023-03-13T04:37:37.971Z,2.10
2023-03-13T04:40:12.621Z,2.13
2023-03-13T04:43:00.456Z,2.34
2023-03-13T04:46:10.331Z,2.37
2023-03-13T04:49:06.103Z,2.25
2023-03-13T04:51:51.836Z,2.20
2023-03-13T04:54:43.798Z,2.28
2023-03-13T04:57:26.411Z,1.94
2023-03-13T05:00:06.411Z,1.97
2023-03-13T05:02:46.516Z,1.92
2023-03-13T05:05:18.313Z,1.88
2023-03-13T05:08:13.144Z,1.66
2023-03-13T05:11:11.601Z,1.77
2023-03-13T05:14:15.500Z,1.74
2023-03-13T05:16:55.942Z,1.75
2023-03-13T05:19:46.209Z,1.82
2023-03-13T05:22:27.909Z,1.80
2023-03-13T05:25:20.339Z,1.71
2023-03-13T05:28:07.394Z,1.81
2023-03-13T05:30:56.388Z,1.41
2023-03-13T05:33:56.397Z,1.57
2023-03-13T05:37:06.537Z,1.68
2023-03-13T05:39:58.570Z,1.75
2023-03-13T05:42:53.708Z,1.73
2023-03-13T05:45:51.802Z,1.88
2023-03-13T05:48:52.884Z,1.64
2023-03-13T05:51:43.220Z,1.68
2023-03-13T05:54:43.036Z,1.53
2023-03-13T05:57:23.959Z,1.47
2023-03-13T06:00:08.672Z,1.38
2023-03-13T06:02:54.465Z,1.20
2023-03-13T06:05:33.520Z,1.15
2023-03-13T06:08:07.156Z,1.29
2023-03-13T06:10:38.779Z,1.43
2023-03-13T06:13:19.329Z,1.26
2023-03-13T06:15:55.494Z,1.52
2023-03-13T06:18:43.612Z,1.49
2023-03-13T06:21:15.450Z,1.49
2023-03-13T06:23:47.067Z,1.58
2023-03-13T06:26:18.921Z,1.57
2023-03-13T06:28:50.631Z,1.49
2023-03-13T06:31:22.601Z,1.41
2023-03-13T06:33:55.398Z,1.33
2023-03-13T06:36:27.290Z,1.45
2023-03-13T06:38:59.263Z,1.34
2023-03-13T06:41:31.232Z,1.19
2023-03-13T06:44:03.510Z,1.44
2023-03-13T06:46:35.158Z,1.48
2023-03-13T06:49:06.798Z,1.50
2023-03-13T06:51:38.465Z,1.42
2023-03-13T06:54:10.092Z,1.47
2023-03-13T06:56:41.664Z,1.55
2023-03-13T06:59:13.237Z,1.59
2023-03-13T07:01:44.851Z,1.66
2023-03-13T07:04:16.635Z,1.61
2023-03-13T07:06:48.247Z,1.78
2023-03-13T07:09:19.897Z,1.54
2023-03-13T07:11:51.483Z,1.57
2023-03-13T07:14:23.043Z,1.51
2023-03-13T07:16:54.753Z,1.48
2023-03-13T07:19:26.630Z,1.57
2023-03-13T07:21:58.236Z,1.63
2023-03-13T07:24:29.910Z,1.32
2023-03-13T07:27:07.150Z,1.47
2023-03-13T07:29:39.389Z,1.52
2023-03-13T07:32:10.982Z,1.65
2023-03-13T07:34:42.588Z,1.49
2023-03-13T07:37:15.579Z,1.35
2023-03-13T07:39:47.194Z,1.44
2023-03-13T07:42:18.772Z,1.36
2023-03-13T07:44:50.841Z,1.60
2023-03-13T07:47:23.665Z,1.59
2023-03-13T07:49:55.741Z,1.46
2023-03-13T07:52:27.763Z,1.67
2023-03-13T07:54:59.529Z,1.36
2023-03-13T07:57:31.536Z,1.52
2023-03-13T08:00:03.872Z,1.46
2023-03-13T08:02:43.802Z,1.64
2023-03-13T08:05:15.656Z,1.48
2023-03-13T08:07:47.586Z,1.58
2023-03-13T08:10:19.267Z,1.52
2023-03-13T08:12:51.049Z,1.47
2023-03-13T08:15:22.762Z,1.51
2023-03-13T08:18:01.748Z,1.50
2023-03-13T08:20:33.393Z,1.53
2023-03-13T08:23:05.077Z,1.41
2023-03-13T08:25:36.744Z,1.62
2023-03-13T08:28:08.655Z,1.47
2023-03-13T08:30:40.290Z,1.31
2023-03-13T08:33:12.190Z,1.49
2023-03-13T08:35:43.881Z,1.57
2023-03-13T08:38:15.681Z,1.52
2023-03-13T08:40:47.310Z,1.34
2023-03-13T08:43:18.989Z,1.38
2023-03-13T08:45:57.890Z,1.54
2023-03-13T08:48:29.846Z,1.32
2023-03-13T08:51:08.662Z,1.17
2023-03-13T08:53:43.250Z,1.39
2023-03-13T08:56:18.184Z,1.39
2023-03-13T08:58:52.010Z,1.48
2023-03-13T09:01:27.430Z,1.37
2023-03-13T09:04:02.794Z,1.45
2023-03-13T09:06:37.622Z,1.22
2023-03-13T09:09:09.784Z,1.36
2023-03-13T09:11:41.398Z,2.02
2023-03-13T09:14:12.998Z,1.40
2023-03-13T09:16:44.625Z,1.45
2023-03-13T09:19:16.177Z,1.32
2023-03-13T09:21:47.728Z,1.49
2023-03-13T09:24:19.372Z,1.38
2023-03-13T09:27:00.714Z,1.19
2023-03-13T09:29:33.063Z,1.25
2023-03-13T09:32:04.932Z,1.41
2023-03-13T09:34:36.560Z,1.39
2023-03-13T09:37:08.317Z,1.25
2023-03-13T09:39:40.077Z,1.35
2023-03-13T09:42:35.325Z,1.17
2023-03-13T09:45:15.936Z,1.19
2023-03-13T09:47:58.477Z,1.21
2023-03-13T09:50:36.686Z,1.05
2023-03-13T09:53:26.653Z,1.16
2023-03-13T09:55:58.301Z,0.99
2023-03-13T09:58:30.718Z,1.07
2023-03-13T10:01:05.719Z,0.90
2023-03-13T10:03:56.492Z,1.19
2023-03-13T10:06:36.988Z,1.23
2023-03-13T10:09:21.065Z,1.39
2023-03-13T10:12:04.518Z,1.60
2023-03-13T10:14:56.456Z,1.17
2023-03-13T10:17:40.294Z,1.15
2023-03-13T10:20:34.856Z,1.25
2023-03-13T10:23:15.203Z,1.23
2023-03-13T10:25:47.033Z,1.60
2023-03-13T10:28:19.382Z,2.02
2023-03-13T10:31:00.656Z,1.72
2023-03-13T10:33:34.723Z,1.07
2023-03-13T10:36:12.705Z,1.35
2023-03-13T10:38:54.761Z,1.00
2023-03-13T10:41:35.306Z,1.09
2023-03-13T10:44:20.092Z,1.02
2023-03-13T10:46:51.922Z,0.89
2023-03-13T10:49:24.558Z,1.08
2023-03-13T10:52:00.134Z,1.03
2023-03-13T10:54:35.343Z,1.05
2023-03-13T10:57:19.042Z,0.85
2023-03-13T10:59:52.964Z,1.06
2023-03-13T11:02:30.467Z,0.84
2023-03-13T11:05:23.455Z,0.91
2023-03-13T11:07:55.642Z,0.84
2023-03-13T11:10:30.108Z,0.96
2023-03-13T11:13:01.820Z,0.98
2023-03-13T11:15:53.865Z,1.17
2023-03-13T11:18:40.744Z,1.15
2023-03-13T11:21:23.929Z,1.03
2023-03-13T11:24:07.919Z,1.44
2023-03-13T11:27:11.082Z,1.21
2023-03-13T11:30:18.068Z,1.03
2023-03-13T11:32:56.771Z,0.99
2023-03-13T11:35:31.691Z,0.98
2023-03-13T11:38:12.955Z,1.01
2023-03-13T11:41:06.532Z,0.90
2023-03-13T11:43:50.250Z,1.16
2023-03-13T11:46:45.839Z,1.16
2023-03-13T11:49:26.654Z,1.15
2023-03-13T11:52:07.907Z,1.00
2023-03-13T11:55:04.150Z,1.23
2023-03-13T11:58:01.732Z,1.14
2023-03-13T12:00:42.316Z,1.08
2023-03-13T12:03:35.259Z,0.93
2023-03-13T12:06:28.364Z,1.03
2023-03-13T12:09:30.500Z,1.14
2023-03-13T12:12:15.138Z,1.04
2023-03-13T12:15:00.109Z,1.02
2023-03-13T12:17:44.101Z,1.08
2023-03-13T12:20:38.382Z,0.90
2023-03-13T12:23:16.067Z,1.21
2023-03-13T12:26:06.227Z,1.02
2023-03-13T12:28:43.129Z,1.05
2023-03-13T12:31:23.805Z,1.20
2023-03-13T12:34:20.118Z,1.11
2023-03-13T12:36:58.309Z,1.15
2023-03-13T12:39:43.322Z,0.98
2023-03-13T12:43:02.457Z,1.07
2023-03-13T12:45:46.335Z,1.04
2023-03-13T12:48:50.480Z,1.04
2023-03-13T12:51:25.011Z,1.19
2023-03-13T12:54:10.018Z,1.05
2023-03-13T12:57:00.609Z,1.19
2023-03-13T12:59:32.153Z,1.15
2023-03-13T13:02:24.681Z,1.15
2023-03-13T13:05:00.372Z,1.10
2023-03-13T13:07:35.470Z,0.89
2023-03-13T13:10:10.010Z,1.00
2023-03-13T13:13:16.133Z,0.92
2023-03-13T13:16:01.716Z,1.06
2023-03-13T13:18:34.710Z,1.01
2023-03-13T13:21:15.703Z,0.83
2023-03-13T13:23:48.446Z,0.97
2023-03-13T13:26:26.001Z,1.24
2023-03-13T13:29:00.115Z,1.05
2023-03-13T13:31:46.225Z,1.07
2023-03-13T13:34:38.126Z,1.09
2023-03-13T13:37:12.503Z,0.92
2023-03-13T13:39:46.622Z,1.18
2023-03-13T13:42:30.198Z,1.23
2023-03-13T13:45:03.794Z,1.38
2023-03-13T13:47:35.568Z,1.20
2023-03-13T13:50:25.482Z,1.12
2023-03-13T13:53:30.497Z,1.31
2023-03-13T13:56:02.768Z,1.23
2023-03-13T13:58:44.231Z,1.17
2023-03-13T14:01:17.148Z,1.20
2023-03-13T14:03:51.968Z,1.34
2023-03-13T14:06:32.046Z,1.17
2023-03-13T14:09:36.389Z,1.27
2023-03-13T14:12:27.550Z,1.30
2023-03-13T14:15:26.587Z,1.37
2023-03-13T14:17:59.575Z,1.41
2023-03-13T14:20:37.501Z,1.36
2023-03-13T14:23:11.435Z,1.27
2023-03-13T14:25:49.304Z,1.51
2023-03-13T14:28:27.809Z,1.39
2023-03-13T14:30:59.615Z,1.21
2023-03-13T14:33:31.603Z,1.20
2023-03-13T14:36:04.083Z,1.18
2023-03-13T14:38:35.784Z,1.12
2023-03-13T14:41:26.971Z,1.22
2023-03-13T14:44:14.035Z,1.21
2023-03-13T14:46:45.938Z,1.20
2023-03-13T14:49:22.348Z,1.15
2023-03-13T14:51:59.730Z,1.19
2023-03-13T14:54:35.021Z,1.00
2023-03-13T14:57:09.788Z,1.11
2023-03-13T14:59:42.439Z,1.14
2023-03-13T15:02:16.666Z,1.09
2023-03-13T15:04:56.156Z,1.28
2023-03-13T15:07:41.124Z,1.13
2023-03-13T15:10:19.039Z,1.08
2023-03-13T15:12:50.753Z,1.07
2023-03-13T15:15:22.390Z,1.17
2023-03-13T15:17:54.058Z,1.06
2023-03-13T15:20:25.580Z,0.99
2023-03-13T15:23:00.388Z,1.06
2023-03-13T15:25:32.012Z,1.05
2023-03-13T15:28:03.791Z,1.06
2023-03-13T15:30:35.393Z,1.07
2023-03-13T15:33:13.828Z,1.13
2023-03-13T15:35:46.950Z,1.10
2023-03-13T15:38:22.016Z,1.05
2023-03-13T15:40:54.421Z,1.07
2023-03-13T15:43:26.115Z,1.32
2023-03-13T15:45:57.909Z,1.20
2023-03-13T15:48:30.486Z,1.32
2023-03-13T15:51:03.101Z,1.36
2023-03-13T15:53:35.309Z,1.17
2023-03-13T15:56:19.564Z,0.88
2023-03-13T15:58:51.503Z,1.23
2023-03-13T16:01:23.244Z,1.29
2023-03-13T16:03:55.017Z,1.08
2023-03-13T16:06:26.851Z,1.41
2023-03-13T16:09:00.295Z,1.25
2023-03-13T16:11:32.295Z,1.21
2023-03-13T16:14:04.010Z,1.40
2023-03-13T16:16:37.754Z,1.35
2023-03-13T16:19:10.117Z,1.40
2023-03-13T16:21:41.687Z,1.18
2023-03-13T16:24:13.251Z,1.16
2023-03-13T16:26:45.433Z,1.00
2023-03-13T16:29:17.172Z,1.19
2023-03-13T16:31:48.760Z,0.96
2023-03-13T16:34:20.433Z,1.06
2023-03-13T16:36:51.986Z,1.00
2023-03-13T16:39:23.730Z,1.06
2023-03-13T16:41:55.339Z,1.10
2023-03-13T16:44:27.500Z,1.14
2023-03-13T16:47:05.955Z,1.54
2023-03-13T16:49:38.074Z,1.31
2023-03-13T16:52:15.171Z,1.19
2023-03-13T16:54:47.181Z,1.12
2023-03-13T16:57:23.801Z,1.17
2023-03-13T16:59:55.649Z,1.32
2023-03-13T17:02:27.403Z,1.37
2023-03-13T17:04:59.205Z,2.89
2023-03-13T17:07:31.518Z,1.11
2023-03-13T17:10:03.290Z,0.94
2023-03-13T17:12:35.316Z,0.96
2023-03-13T17:15:07.652Z,0.91
2023-03-13T17:17:40.475Z,0.88
2023-03-13T17:20:16.152Z,0.97
2023-03-13T17:22:48.566Z,0.96
2023-03-13T17:25:20.257Z,1.05
2023-03-13T17:27:52.668Z,1.11
2023-03-13T17:30:28.316Z,0.89
2023-03-13T17:33:00.175Z,0.91
2023-03-13T17:35:31.902Z,1.03
2023-03-13T17:38:03.822Z,0.96
2023-03-13T17:40:37.407Z,1.12
2023-03-13T17:43:09.836Z,0.99
2023-03-13T17:45:41.608Z,1.13
2023-03-13T17:48:13.491Z,1.09
2023-03-13T17:50:45.229Z,1.05
2023-03-13T17:53:17.228Z,1.26
2023-03-13T17:55:48.878Z,1.26
2023-03-13T17:58:20.779Z,1.32
2023-03-13T18:00:52.530Z,1.20
2023-03-13T18:03:24.205Z,1.25
2023-03-13T18:05:55.865Z,1.30
2023-03-13T18:08:27.495Z,1.43
2023-03-13T18:10:59.072Z,1.35
2023-03-13T18:13:30.771Z,1.54
2023-03-13T18:16:02.506Z,1.51
2023-03-13T18:18:34.313Z,1.38
2023-03-13T18:21:06.275Z,1.34
2023-03-13T18:23:37.975Z,1.60
2023-03-13T18:26:31.400Z,1.62
2023-03-13T18:29:18.974Z,1.50
2023-03-13T18:31:50.614Z,1.65
2023-03-13T18:34:23.837Z,1.70
2023-03-13T18:36:56.706Z,1.75
2023-03-13T18:39:28.255Z,1.83
2023-03-13T18:42:00.093Z,1.87
2023-03-13T18:44:31.840Z,1.78
2023-03-13T18:47:12.451Z,2.00
2023-03-13T18:49:44.514Z,1.85
2023-03-13T18:52:16.187Z,1.88
2023-03-13T18:54:47.796Z,1.98
2023-03-13T18:57:20.046Z,1.87
2023-03-13T18:59:51.639Z,1.86
2023-03-13T19:02:23.331Z,2.03
2023-03-13T19:04:55.051Z,2.05
2023-03-13T19:07:27.575Z,1.94
2023-03-13T19:09:59.132Z,1.93
2023-03-13T19:12:30.722Z,1.87
2023-03-13T19:15:02.379Z,2.00
2023-03-13T19:17:34.147Z,2.14
2023-03-13T19:20:06.522Z,2.22
2023-03-13T19:22:40.356Z,2.16
2023-03-13T19:25:13.767Z,2.17
2023-03-13T19:27:50.651Z,2.21
2023-03-13T19:30:25.541Z,2.06
2023-03-13T19:32:57.370Z,2.03
2023-03-13T19:35:29.069Z,2.28
2023-03-13T19:38:00.738Z,2.10
2023-03-13T19:40:32.685Z,2.23
2023-03-13T19:43:04.410Z,2.28
2023-03-13T19:45:36.145Z,2.26
2023-03-13T19:48:09.421Z,2.25
2023-03-13T19:50:41.341Z,2.07
2023-03-13T19:53:13.080Z,2.24
2023-03-13T19:55:44.710Z,2.31
2023-03-13T19:58:16.408Z,2.40
2023-03-13T20:00:48.081Z,2.11
2023-03-13T20:03:20.170Z,2.24
2023-03-13T20:05:51.891Z,2.21
2023-03-13T20:08:24.048Z,2.26
2023-03-13T20:10:55.703Z,2.31
2023-03-13T20:13:27.356Z,2.18
2023-03-13T20:15:59.241Z,2.27
2023-03-13T20:18:31.188Z,2.26
2023-03-13T20:21:03.152Z,2.52
2023-03-13T20:23:34.872Z,2.52
2023-03-13T20:26:08.909Z,2.79
2023-03-13T20:28:43.881Z,2.51
2023-03-13T20:31:18.222Z,2.35
2023-03-13T20:33:50.138Z,1.82
2023-03-13T20:36:23.161Z,1.59
2023-03-13T20:38:54.857Z,1.91
2023-03-13T20:41:29.730Z,1.83
2023-03-13T20:44:02.013Z,1.30
2023-03-13T20:46:33.693Z,0.99
2023-03-13T20:49:06.517Z,0.94
2023-03-13T20:51:38.502Z,0.67
2023-03-13T20:54:10.274Z,0.50
2023-03-13T20:56:41.987Z,0.63
2023-03-13T20:59:13.739Z,0.64
2023-03-13T21:01:45.550Z,0.63
2023-03-13T21:04:17.315Z,0.47
2023-03-13T21:06:49.048Z,0.30
2023-03-13T21:09:20.733Z,0.17
2023-03-13T21:11:52.530Z,0.15
2023-03-13T21:14:24.717Z,0.10
2023-03-13T21:16:56.518Z,0.09
2023-03-13T21:19:29.274Z,0.15
2023-03-13T21:22:01.145Z,0.12
2023-03-13T21:24:36.105Z,0.08
2023-03-13T21:27:07.717Z,0.10
2023-03-13T21:29:39.331Z,0.09
2023-03-13T21:32:11.375Z,0.12
2023-03-13T21:34:43.887Z,0.16
2023-03-13T21:37:15.706Z,0.10
2023-03-13T21:39:51.531Z,0.06
2023-03-13T21:42:23.250Z,0.13
2023-03-13T21:44:54.904Z,0.12
2023-03-13T21:47:26.528Z,0.07
2023-03-13T21:49:58.220Z,0.06
2023-03-13T21:52:29.813Z,0.06
2023-03-13T21:55:01.505Z,0.11
2023-03-13T21:57:33.207Z,0.12
2023-03-13T22:00:06.212Z,0.11
2023-03-13T22:02:38.812Z,0.10
2023-03-13T22:05:11.096Z,0.14
2023-03-13T22:07:42.807Z,0.19
2023-03-13T22:10:14.504Z,0.13
2023-03-13T22:12:46.066Z,0.17
2023-03-13T22:15:17.748Z,0.25
2023-03-13T22:17:49.344Z,0.14
2023-03-13T22:20:20.999Z,0.12
2023-03-13T22:23:05.934Z,0.12
2023-03-13T22:25:45.681Z,0.08
2023-03-13T22:28:17.293Z,0.16
2023-03-13T22:30:49.148Z,0.15
2023-03-13T22:33:20.864Z,0.18
2023-03-13T22:35:52.849Z,0.12
2023-03-13T22:38:25.133Z,0.19
2023-03-13T22:41:05.715Z,0.15
2023-03-13T22:43:37.439Z,0.24
2023-03-13T22:46:13.186Z,0.29
2023-03-13T22:48:44.953Z,0.42
2023-03-13T22:51:16.747Z,0.25
2023-03-13T22:53:48.462Z,0.27
2023-03-13T22:56:20.240Z,0.24
2023-03-13T22:58:52.015Z,0.28
2023-03-13T23:01:24.427Z,0.51
2023-03-13T23:03:56.525Z,0.30
2023-03-13T23:06:28.335Z,0.32
2023-03-13T23:09:00.115Z,0.45
2023-03-13T23:11:32.178Z,0.36
2023-03-13T23:14:04.169Z,0.41
2023-03-13T23:16:36.243Z,0.33
2023-03-13T23:19:08.045Z,0.59
2023-03-13T23:21:39.722Z,0.34
2023-03-13T23:24:11.618Z,0.37
2023-03-13T23:26:43.477Z,0.38
2023-03-13T23:29:15.119Z,0.29
2023-03-13T23:31:46.867Z,0.29
2023-03-13T23:34:18.794Z,0.42
2023-03-13T23:36:50.759Z,0.28
2023-03-13T23:39:22.423Z,0.33
2023-03-13T23:41:54.069Z,0.34
2023-03-13T23:44:25.982Z,0.35
2023-03-13T23:46:58.174Z,0.36
2023-03-13T23:49:29.924Z,0.26
2023-03-13T23:52:02.012Z,0.25
2023-03-13T23:54:33.840Z,0.31
2023-03-13T23:57:06.866Z,0.26
2023-03-13T23:59:38.947Z,0.25
